sensor_id;sensor_type;location;lat;lon;timestamp;pressure;altitude;pressure_sealevel;temperature;humidity
8575;BME280;4325;42.520;27.448;2022-12-07T00:01:52;101330.47;;;10.40;100.00
8575;BME280;4325;42.520;27.448;2022-12-07T00:04:19;101336.28;;;10.43;100.00
8575;BME280;4325;42.520;27.448;2022-12-07T00:06:52;101327.31;;;10.48;100.00
8575;BME280;4325;42.520;27.448;2022-12-07T00:09:19;101337.47;;;10.52;100.00
8575;BME280;4325;42.520;27.448;2022-12-07T00:11:50;101333.66;;;10.53;100.00
8575;BME280;4325;42.520;27.448;2022-12-07T00:14:17;101345.44;;;10.54;100.00
8575;BME280;4325;42.520;27.448;2022-12-07T00:16:45;101347.34;;;10.53;100.00
8575;BME280;4325;42.520;27.448;2022-12-07T00:19:13;101345.19;;;10.55;100.00
8575;BME280;4325;42.520;27.448;2022-12-07T00:21:40;101345.69;;;10.52;100.00
8575;BME280;4325;42.520;27.448;2022-12-07T00:24:07;101339.88;;;10.49;100.00
8575;BME280;4325;42.520;27.448;2022-12-07T00:26:36;101339.09;;;10.48;100.00
8575;BME280;4325;42.520;27.448;2022-12-07T00:29:07;101340.22;;;10.52;100.00
8575;BME280;4325;42.520;27.448;2022-12-07T00:31:35;101339.72;;;10.55;100.00
8575;BME280;4325;42.520;27.448;2022-12-07T00:34:04;101339.22;;;10.58;100.00
8575;BME280;4325;42.520;27.448;2022-12-07T00:36:31;101335.38;;;10.59;100.00
8575;BME280;4325;42.520;27.448;2022-12-07T00:38:59;101338.94;;;10.60;100.00
8575;BME280;4325;42.520;27.448;2022-12-07T00:41:27;101334.81;;;10.57;100.00
8575;BME280;4325;42.520;27.448;2022-12-07T00:43:55;101337.28;;;10.59;100.00
8575;BME280;4325;42.520;27.448;2022-12-07T00:46:24;101340.28;;;10.57;100.00
8575;BME280;4325;42.520;27.448;2022-12-07T00:48:51;101340.00;;;10.59;100.00
8575;BME280;4325;42.520;27.448;2022-12-07T00:51:21;101333.91;;;10.52;100.00
8575;BME280;4325;42.520;27.448;2022-12-07T00:53:48;101331.72;;;10.54;100.00
8575;BME280;4325;42.520;27.448;2022-12-07T00:56:16;101337.81;;;10.56;100.00
8575;BME280;4325;42.520;27.448;2022-12-07T00:58:43;101330.94;;;10.53;100.00
8575;BME280;4325;42.520;27.448;2022-12-07T01:01:11;101338.88;;;10.55;100.00
8575;BME280;4325;42.520;27.448;2022-12-07T01:03:39;101328.19;;;10.53;100.00
8575;BME280;4325;42.520;27.448;2022-12-07T01:06:06;101324.63;;;10.53;100.00
8575;BME280;4325;42.520;27.448;2022-12-07T01:08:33;101321.00;;;10.47;100.00
8575;BME280;4325;42.520;27.448;2022-12-07T01:11:01;101325.13;;;10.50;100.00
8575;BME280;4325;42.520;27.448;2022-12-07T01:13:28;101312.84;;;10.52;100.00
8575;BME280;4325;42.520;27.448;2022-12-07T01:15:57;101306.03;;;10.55;100.00
8575;BME280;4325;42.520;27.448;2022-12-07T01:18:25;101314.75;;;10.52;100.00
8575;BME280;4325;42.520;27.448;2022-12-07T01:21:02;101315.31;;;10.54;100.00
8575;BME280;4325;42.520;27.448;2022-12-07T01:23:30;101309.78;;;10.49;100.00
8575;BME280;4325;42.520;27.448;2022-12-07T01:25:57;101304.50;;;10.42;100.00
8575;BME280;4325;42.520;27.448;2022-12-07T01:28:26;101311.09;;;10.41;100.00
8575;BME280;4325;42.520;27.448;2022-12-07T01:30:57;101309.91;;;10.37;100.00
8575;BME280;4325;42.520;27.448;2022-12-07T01:33:26;101295.59;;;10.30;100.00
8575;BME280;4325;42.520;27.448;2022-12-07T01:35:53;101301.03;;;10.25;100.00
8575;BME280;4325;42.520;27.448;2022-12-07T01:38:21;101298.78;;;10.22;100.00
8575;BME280;4325;42.520;27.448;2022-12-07T01:40:54;101301.03;;;10.25;100.00
8575;BME280;4325;42.520;27.448;2022-12-07T01:43:21;101302.19;;;10.29;100.00
8575;BME280;4325;42.520;27.448;2022-12-07T01:45:49;101295.31;;;10.27;100.00
8575;BME280;4325;42.520;27.448;2022-12-07T01:48:18;101290.66;;;10.27;100.00
8575;BME280;4325;42.520;27.448;2022-12-07T01:50:48;101287.66;;;10.29;100.00
8575;BME280;4325;42.520;27.448;2022-12-07T01:53:17;101293.38;;;10.27;100.00
8575;BME280;4325;42.520;27.448;2022-12-07T01:55:47;101294.22;;;10.28;100.00
8575;BME280;4325;42.520;27.448;2022-12-07T01:58:17;101296.19;;;10.32;100.00
8575;BME280;4325;42.520;27.448;2022-12-07T02:00:44;101292.88;;;10.30;100.00
8575;BME280;4325;42.520;27.448;2022-12-07T02:03:15;101288.22;;;10.31;100.00
8575;BME280;4325;42.520;27.448;2022-12-07T02:05:45;101292.03;;;10.30;100.00
8575;BME280;4325;42.520;27.448;2022-12-07T02:08:13;101287.16;;;10.32;100.00
8575;BME280;4325;42.520;27.448;2022-12-07T02:10:40;101287.97;;;10.32;100.00
8575;BME280;4325;42.520;27.448;2022-12-07T02:13:11;101286.06;;;10.33;100.00
8575;BME280;4325;42.520;27.448;2022-12-07T02:15:49;101286.63;;;10.35;100.00
8575;BME280;4325;42.520;27.448;2022-12-07T02:18:23;101284.72;;;10.35;100.00
8575;BME280;4325;42.520;27.448;2022-12-07T02:21:01;101280.31;;;10.34;100.00
8575;BME280;4325;42.520;27.448;2022-12-07T02:23:45;101265.28;;;10.32;100.00
8575;BME280;4325;42.520;27.448;2022-12-07T02:29:23;101272.44;;;10.38;100.00
8575;BME280;4325;42.520;27.448;2022-12-07T02:31:58;101281.53;;;10.43;100.00
8575;BME280;4325;42.520;27.448;2022-12-07T02:34:34;101274.44;;;10.47;100.00
8575;BME280;4325;42.520;27.448;2022-12-07T02:37:09;101277.19;;;10.47;100.00
8575;BME280;4325;42.520;27.448;2022-12-07T02:39:42;101275.00;;;10.49;100.00
8575;BME280;4325;42.520;27.448;2022-12-07T02:42:15;101270.38;;;10.50;100.00
8575;BME280;4325;42.520;27.448;2022-12-07T02:44:46;101276.91;;;10.44;100.00
8575;BME280;4325;42.520;27.448;2022-12-07T02:47:16;101270.03;;;10.41;100.00
8575;BME280;4325;42.520;27.448;2022-12-07T02:49:44;101259.53;;;10.33;100.00
8575;BME280;4325;42.520;27.448;2022-12-07T02:52:11;101256.41;;;10.25;100.00
8575;BME280;4325;42.520;27.448;2022-12-07T02:54:38;101255.28;;;10.21;100.00
8575;BME280;4325;42.520;27.448;2022-12-07T02:57:14;101261.78;;;10.15;100.00
8575;BME280;4325;42.520;27.448;2022-12-07T02:59:59;101257.66;;;10.12;100.00
8575;BME280;4325;42.520;27.448;2022-12-07T03:02:35;101250.69;;;10.05;100.00
8575;BME280;4325;42.520;27.448;2022-12-07T03:05:15;101261.69;;;9.88;100.00
8575;BME280;4325;42.520;27.448;2022-12-07T03:07:51;101263.69;;;9.76;100.00
8575;BME280;4325;42.520;27.448;2022-12-07T03:10:27;101260.25;;;9.64;100.00
8575;BME280;4325;42.520;27.448;2022-12-07T03:13:03;101256.38;;;9.60;100.00
8575;BME280;4325;42.520;27.448;2022-12-07T03:15:38;101270.56;;;9.57;100.00
8575;BME280;4325;42.520;27.448;2022-12-07T03:18:07;101263.09;;;9.52;100.00
8575;BME280;4325;42.520;27.448;2022-12-07T03:20:37;101260.56;;;9.46;100.00
8575;BME280;4325;42.520;27.448;2022-12-07T03:23:06;101257.19;;;9.39;100.00
8575;BME280;4325;42.520;27.448;2022-12-07T03:25:35;101254.88;;;9.30;100.00
8575;BME280;4325;42.520;27.448;2022-12-07T03:28:07;101257.03;;;9.28;100.00
8575;BME280;4325;42.520;27.448;2022-12-07T03:30:39;101253.72;;;9.26;100.00
8575;BME280;4325;42.520;27.448;2022-12-07T03:33:12;101255.19;;;9.17;100.00
8575;BME280;4325;42.520;27.448;2022-12-07T03:35:43;101255.66;;;9.09;100.00
8575;BME280;4325;42.520;27.448;2022-12-07T03:38:17;101261.03;;;9.04;100.00
8575;BME280;4325;42.520;27.448;2022-12-07T03:40:50;101258.22;;;8.99;100.00
8575;BME280;4325;42.520;27.448;2022-12-07T03:43:19;101257.88;;;8.96;100.00
8575;BME280;4325;42.520;27.448;2022-12-07T03:45:58;101260.19;;;8.87;100.00
8575;BME280;4325;42.520;27.448;2022-12-07T03:48:32;101257.03;;;8.79;100.00
8575;BME280;4325;42.520;27.448;2022-12-07T03:51:08;101253.91;;;8.70;100.00
8575;BME280;4325;42.520;27.448;2022-12-07T03:53:41;101261.41;;;8.63;100.00
8575;BME280;4325;42.520;27.448;2022-12-07T03:56:09;101252.56;;;8.56;100.00
8575;BME280;4325;42.520;27.448;2022-12-07T03:58:38;101260.66;;;8.51;100.00
8575;BME280;4325;42.520;27.448;2022-12-07T04:01:07;101263.53;;;8.44;100.00
8575;BME280;4325;42.520;27.448;2022-12-07T04:03:34;101261.88;;;8.43;100.00
8575;BME280;4325;42.520;27.448;2022-12-07T04:06:01;101258.88;;;8.45;100.00
8575;BME280;4325;42.520;27.448;2022-12-07T04:08:28;101260.31;;;8.47;100.00
8575;BME280;4325;42.520;27.448;2022-12-07T04:10:55;101247.59;;;8.53;100.00
8575;BME280;4325;42.520;27.448;2022-12-07T04:13:22;101257.84;;;8.62;100.00
8575;BME280;4325;42.520;27.448;2022-12-07T04:15:49;101250.91;;;8.72;100.00
8575;BME280;4325;42.520;27.448;2022-12-07T04:18:17;101250.75;;;8.78;100.00
8575;BME280;4325;42.520;27.448;2022-12-07T04:20:45;101248.94;;;8.84;100.00
8575;BME280;4325;42.520;27.448;2022-12-07T04:23:12;101252.00;;;8.87;100.00
8575;BME280;4325;42.520;27.448;2022-12-07T04:25:39;101254.72;;;8.87;100.00
8575;BME280;4325;42.520;27.448;2022-12-07T04:28:06;101250.94;;;8.88;100.00
8575;BME280;4325;42.520;27.448;2022-12-07T04:30:33;101252.41;;;8.79;100.00
8575;BME280;4325;42.520;27.448;2022-12-07T04:33:00;101248.44;;;8.70;100.00
8575;BME280;4325;42.520;27.448;2022-12-07T04:35:28;101248.34;;;8.65;100.00
8575;BME280;4325;42.520;27.448;2022-12-07T04:37:55;101244.94;;;8.58;100.00
8575;BME280;4325;42.520;27.448;2022-12-07T04:40:22;101247.59;;;8.53;100.00
8575;BME280;4325;42.520;27.448;2022-12-07T04:42:49;101244.84;;;8.53;100.00
8575;BME280;4325;42.520;27.448;2022-12-07T04:45:16;101242.19;;;8.41;100.00
8575;BME280;4325;42.520;27.448;2022-12-07T04:47:43;101245.75;;;8.42;100.00
8575;BME280;4325;42.520;27.448;2022-12-07T04:50:10;101242.31;;;8.35;100.00
8575;BME280;4325;42.520;27.448;2022-12-07T04:52:38;101248.78;;;8.29;100.00
8575;BME280;4325;42.520;27.448;2022-12-07T04:55:06;101246.97;;;8.23;100.00
8575;BME280;4325;42.520;27.448;2022-12-07T04:57:32;101250.78;;;8.22;100.00
8575;BME280;4325;42.520;27.448;2022-12-07T04:59:59;101251.00;;;8.20;100.00
8575;BME280;4325;42.520;27.448;2022-12-07T05:02:26;101245.66;;;8.25;100.00
8575;BME280;4325;42.520;27.448;2022-12-07T05:04:53;101249.34;;;8.31;100.00
8575;BME280;4325;42.520;27.448;2022-12-07T05:07:20;101246.16;;;8.34;100.00
8575;BME280;4325;42.520;27.448;2022-12-07T05:09:48;101244.34;;;8.39;100.00
8575;BME280;4325;42.520;27.448;2022-12-07T05:12:15;101247.88;;;8.40;100.00
8575;BME280;4325;42.520;27.448;2022-12-07T05:14:42;101247.88;;;8.40;100.00
8575;BME280;4325;42.520;27.448;2022-12-07T05:17:08;101244.56;;;8.38;100.00
8575;BME280;4325;42.520;27.448;2022-12-07T05:19:36;101250.88;;;8.38;100.00
8575;BME280;4325;42.520;27.448;2022-12-07T05:22:03;101242.41;;;8.40;100.00
8575;BME280;4325;42.520;27.448;2022-12-07T05:24:30;101243.59;;;8.44;100.00
8575;BME280;4325;42.520;27.448;2022-12-07T05:26:58;101245.69;;;8.53;100.00
8575;BME280;4325;42.520;27.448;2022-12-07T05:29:25;101246.94;;;8.62;100.00
8575;BME280;4325;42.520;27.448;2022-12-07T05:31:52;101246.75;;;8.69;100.00
8575;BME280;4325;42.520;27.448;2022-12-07T05:34:19;101249.19;;;8.82;100.00
8575;BME280;4325;42.520;27.448;2022-12-07T05:36:46;101242.81;;;8.93;100.00
8575;BME280;4325;42.520;27.448;2022-12-07T05:39:13;101252.09;;;8.92;100.00
8575;BME280;4325;42.520;27.448;2022-12-07T05:41:40;101252.09;;;8.92;100.00
8575;BME280;4325;42.520;27.448;2022-12-07T05:44:25;101259.34;;;8.87;100.00
8575;BME280;4325;42.520;27.448;2022-12-07T05:46:52;101260.59;;;8.79;100.00
8575;BME280;4325;42.520;27.448;2022-12-07T05:49:19;101259.03;;;8.83;100.00
8575;BME280;4325;42.520;27.448;2022-12-07T05:51:46;101265.75;;;8.92;100.00
8575;BME280;4325;42.520;27.448;2022-12-07T05:54:13;101265.81;;;9.14;100.00
8575;BME280;4325;42.520;27.448;2022-12-07T05:56:40;101274.22;;;9.46;100.00
8575;BME280;4325;42.520;27.448;2022-12-07T05:59:08;101266.34;;;9.87;100.00
8575;BME280;4325;42.520;27.448;2022-12-07T06:01:53;101265.91;;;10.17;100.00
8575;BME280;4325;42.520;27.448;2022-12-07T06:04:21;101273.28;;;10.38;100.00
8575;BME280;4325;42.520;27.448;2022-12-07T06:06:48;101262.00;;;10.61;100.00
8575;BME280;4325;42.520;27.448;2022-12-07T06:09:16;101269.34;;;10.83;100.00
8575;BME280;4325;42.520;27.448;2022-12-07T06:11:43;101264.06;;;10.49;100.00
8575;BME280;4325;42.520;27.448;2022-12-07T06:14:27;101259.16;;;10.51;100.00
8575;BME280;4325;42.520;27.448;2022-12-07T06:16:56;101264.38;;;10.80;100.00
8575;BME280;4325;42.520;27.448;2022-12-07T06:19:23;101257.66;;;11.29;100.00
8575;BME280;4325;42.520;27.448;2022-12-07T06:21:50;101262.75;;;11.57;100.00
8575;BME280;4325;42.520;27.448;2022-12-07T06:24:17;101261.38;;;12.02;100.00
8575;BME280;4325;42.520;27.448;2022-12-07T06:26:44;101263.03;;;12.13;100.00
8575;BME280;4325;42.520;27.448;2022-12-07T06:29:11;101266.47;;;12.55;100.00
8575;BME280;4325;42.520;27.448;2022-12-07T06:31:38;101273.97;;;13.25;100.00
8575;BME280;4325;42.520;27.448;2022-12-07T06:34:09;101270.22;;;13.95;100.00
8575;BME280;4325;42.520;27.448;2022-12-07T06:36:37;101281.56;;;14.52;100.00
8575;BME280;4325;42.520;27.448;2022-12-07T06:39:04;101266.81;;;15.11;100.00
8575;BME280;4325;42.520;27.448;2022-12-07T06:41:31;101274.66;;;15.56;98.06
8575;BME280;4325;42.520;27.448;2022-12-07T06:43:58;101272.56;;;15.96;94.70
8575;BME280;4325;42.520;27.448;2022-12-07T06:46:25;101273.19;;;16.35;91.25
8575;BME280;4325;42.520;27.448;2022-12-07T06:48:52;101274.41;;;16.85;87.65
8575;BME280;4325;42.520;27.448;2022-12-07T06:51:20;101274.19;;;17.32;83.26
8575;BME280;4325;42.520;27.448;2022-12-07T06:53:47;101279.22;;;17.76;78.13
8575;BME280;4325;42.520;27.448;2022-12-07T06:56:14;101284.44;;;18.32;70.46
8575;BME280;4325;42.520;27.448;2022-12-07T06:58:41;101283.66;;;18.81;62.97
8575;BME280;4325;42.520;27.448;2022-12-07T07:01:09;101289.72;;;19.05;61.36
8575;BME280;4325;42.520;27.448;2022-12-07T07:03:36;101283.44;;;18.14;63.22
8575;BME280;4325;42.520;27.448;2022-12-07T07:06:03;101285.47;;;17.36;68.07
8575;BME280;4325;42.520;27.448;2022-12-07T07:08:32;101277.06;;;17.41;68.15
8575;BME280;4325;42.520;27.448;2022-12-07T07:10:59;101286.41;;;17.12;70.17
8575;BME280;4325;42.520;27.448;2022-12-07T07:13:25;101289.13;;;17.31;69.94
8575;BME280;4325;42.520;27.448;2022-12-07T07:15:52;101280.16;;;17.39;70.19
8575;BME280;4325;42.520;27.448;2022-12-07T07:18:19;101276.66;;;17.93;67.61
8575;BME280;4325;42.520;27.448;2022-12-07T07:20:46;101284.84;;;18.53;64.50
8575;BME280;4325;42.520;27.448;2022-12-07T07:23:13;101284.84;;;18.25;62.81
8575;BME280;4325;42.520;27.448;2022-12-07T07:25:42;101289.47;;;17.62;64.74
8575;BME280;4325;42.520;27.448;2022-12-07T07:28:08;101292.09;;;17.53;67.98
8575;BME280;4325;42.520;27.448;2022-12-07T07:30:35;101289.28;;;17.40;68.09
8575;BME280;4325;42.520;27.448;2022-12-07T07:33:03;101291.34;;;17.15;68.67
8575;BME280;4325;42.520;27.448;2022-12-07T07:35:32;101295.25;;;17.14;71.02
8575;BME280;4325;42.520;27.448;2022-12-07T07:38:00;101295.88;;;17.57;69.03
8575;BME280;4325;42.520;27.448;2022-12-07T07:40:27;101300.91;;;17.55;68.10
8575;BME280;4325;42.520;27.448;2022-12-07T07:42:57;101301.56;;;17.66;68.41
8575;BME280;4325;42.520;27.448;2022-12-07T07:45:25;101297.47;;;18.31;64.79
8575;BME280;4325;42.520;27.448;2022-12-07T07:47:53;101305.69;;;18.64;60.76
8575;BME280;4325;42.520;27.448;2022-12-07T07:50:20;101293.56;;;18.95;59.29
8575;BME280;4325;42.520;27.448;2022-12-07T07:52:47;101292.50;;;19.27;57.29
8575;BME280;4325;42.520;27.448;2022-12-07T07:55:14;101296.91;;;19.81;56.36
8575;BME280;4325;42.520;27.448;2022-12-07T07:57:41;101302.59;;;20.46;52.91
8575;BME280;4325;42.520;27.448;2022-12-07T08:00:13;101296.41;;;21.35;50.94
8575;BME280;4325;42.520;27.448;2022-12-07T08:02:41;101292.19;;;21.92;47.49
8575;BME280;4325;42.520;27.448;2022-12-07T08:05:09;101284.63;;;20.86;48.88
8575;BME280;4325;42.520;27.448;2022-12-07T08:07:36;101290.81;;;20.66;50.36
8575;BME280;4325;42.520;27.448;2022-12-07T08:10:04;101280.34;;;20.63;50.58
8575;BME280;4325;42.520;27.448;2022-12-07T08:12:35;101281.16;;;20.47;50.70
8575;BME280;4325;42.520;27.448;2022-12-07T08:15:02;101286.50;;;20.26;50.82
8575;BME280;4325;42.520;27.448;2022-12-07T08:17:30;101279.81;;;19.88;51.61
8575;BME280;4325;42.520;27.448;2022-12-07T08:19:57;101287.53;;;19.38;54.46
8575;BME280;4325;42.520;27.448;2022-12-07T08:22:23;101283.97;;;20.16;51.89
8575;BME280;4325;42.520;27.448;2022-12-07T08:24:50;101282.44;;;21.52;47.83
8575;BME280;4325;42.520;27.448;2022-12-07T08:27:17;101291.53;;;22.24;45.34
8575;BME280;4325;42.520;27.448;2022-12-07T08:29:44;101281.25;;;22.46;44.17
8575;BME280;4325;42.520;27.448;2022-12-07T08:32:11;101277.19;;;23.71;41.66
8575;BME280;4325;42.520;27.448;2022-12-07T08:34:39;101279.09;;;25.03;40.31
8575;BME280;4325;42.520;27.448;2022-12-07T08:37:06;101265.69;;;25.24;38.18
8575;BME280;4325;42.520;27.448;2022-12-07T08:39:33;101263.75;;;24.73;38.52
8575;BME280;4325;42.520;27.448;2022-12-07T08:42:00;101249.13;;;25.19;38.43
8575;BME280;4325;42.520;27.448;2022-12-07T08:44:27;101260.97;;;25.13;36.90
8575;BME280;4325;42.520;27.448;2022-12-07T08:46:56;101266.53;;;24.33;38.25
8575;BME280;4325;42.520;27.448;2022-12-07T08:49:28;101263.56;;;22.83;40.74
8575;BME280;4325;42.520;27.448;2022-12-07T08:51:59;101264.38;;;23.04;40.91
8575;BME280;4325;42.520;27.448;2022-12-07T08:54:27;101258.16;;;23.52;40.45
8575;BME280;4325;42.520;27.448;2022-12-07T08:56:55;101244.25;;;24.37;38.97
8575;BME280;4325;42.520;27.448;2022-12-07T08:59:23;101249.97;;;25.20;37.36
8575;BME280;4325;42.520;27.448;2022-12-07T09:01:50;101241.09;;;25.61;37.04
8575;BME280;4325;42.520;27.448;2022-12-07T09:04:17;101243.44;;;27.10;35.04
8575;BME280;4325;42.520;27.448;2022-12-07T09:06:43;101245.41;;;28.68;32.69
8575;BME280;4325;42.520;27.448;2022-12-07T09:09:13;101228.00;;;28.93;31.55
8575;BME280;4325;42.520;27.448;2022-12-07T09:11:40;101237.28;;;29.23;30.34
8575;BME280;4325;42.520;27.448;2022-12-07T09:14:07;101230.56;;;29.38;30.78
8575;BME280;4325;42.520;27.448;2022-12-07T09:16:34;101235.16;;;28.87;31.03
8575;BME280;4325;42.520;27.448;2022-12-07T09:19:01;101230.69;;;29.49;30.61
8575;BME280;4325;42.520;27.448;2022-12-07T09:21:28;101230.72;;;30.47;29.76
8575;BME280;4325;42.520;27.448;2022-12-07T09:23:55;101223.50;;;31.81;28.56
8575;BME280;4325;42.520;27.448;2022-12-07T09:26:23;101221.19;;;33.81;26.45
8575;BME280;4325;42.520;27.448;2022-12-07T09:28:50;101218.31;;;34.29;24.29
8575;BME280;4325;42.520;27.448;2022-12-07T09:31:17;101217.63;;;33.05;25.03
8575;BME280;4325;42.520;27.448;2022-12-07T09:33:44;101207.28;;;32.35;25.94
8575;BME280;4325;42.520;27.448;2022-12-07T09:36:10;101208.00;;;32.78;25.65
8575;BME280;4325;42.520;27.448;2022-12-07T09:38:37;101193.28;;;33.00;25.11
8575;BME280;4325;42.520;27.448;2022-12-07T09:41:05;101201.69;;;34.28;24.81
8575;BME280;4325;42.520;27.448;2022-12-07T09:43:35;101199.25;;;35.28;23.21
8575;BME280;4325;42.520;27.448;2022-12-07T09:46:03;101191.25;;;34.85;22.91
8575;BME280;4325;42.520;27.448;2022-12-07T09:48:32;101184.97;;;33.93;23.71
8575;BME280;4325;42.520;27.448;2022-12-07T09:53:46;101179.72;;;32.46;25.08
8575;BME280;4325;42.520;27.448;2022-12-07T09:56:14;101179.78;;;32.18;25.49
8575;BME280;4325;42.520;27.448;2022-12-07T09:58:43;101176.16;;;31.71;25.77
8575;BME280;4325;42.520;27.448;2022-12-07T10:01:14;101173.44;;;32.97;24.86
8575;BME280;4325;42.520;27.448;2022-12-07T10:03:45;101169.41;;;33.60;24.34
8575;BME280;4325;42.520;27.448;2022-12-07T10:06:15;101165.59;;;33.80;23.98
8575;BME280;4325;42.520;27.448;2022-12-07T10:08:42;101166.84;;;32.13;25.52
8575;BME280;4325;42.520;27.448;2022-12-07T10:11:09;101171.91;;;30.84;26.94
8575;BME280;4325;42.520;27.448;2022-12-07T10:13:38;101161.72;;;28.72;29.37
8575;BME280;4325;42.520;27.448;2022-12-07T10:16:28;101161.94;;;26.53;32.94
8575;BME280;4325;42.520;27.448;2022-12-07T10:19:17;101159.81;;;26.11;33.87
8575;BME280;4325;42.520;27.448;2022-12-07T10:21:59;101155.13;;;26.73;33.08
8575;BME280;4325;42.520;27.448;2022-12-07T10:24:27;101144.56;;;27.27;32.53
8575;BME280;4325;42.520;27.448;2022-12-07T10:26:54;101142.09;;;28.20;30.88
8575;BME280;4325;42.520;27.448;2022-12-07T10:29:23;101138.50;;;28.53;29.95
8575;BME280;4325;42.520;27.448;2022-12-07T10:31:55;101138.91;;;28.85;29.97
8575;BME280;4325;42.520;27.448;2022-12-07T10:34:25;101138.59;;;27.78;30.98
8575;BME280;4325;42.520;27.448;2022-12-07T10:36:53;101142.59;;;26.48;32.94
8575;BME280;4325;42.520;27.448;2022-12-07T10:39:21;101140.38;;;25.25;34.79
8575;BME280;4325;42.520;27.448;2022-12-07T10:41:55;101138.25;;;24.35;36.28
8575;BME280;4325;42.520;27.448;2022-12-07T10:44:24;101130.38;;;24.80;36.21
8575;BME280;4325;42.520;27.448;2022-12-07T10:47:13;101127.19;;;26.42;33.93
8575;BME280;4325;42.520;27.448;2022-12-07T10:50:07;101118.94;;;29.91;29.92
8575;BME280;4325;42.520;27.448;2022-12-07T10:53:02;101117.91;;;30.17;28.18
8575;BME280;4325;42.520;27.448;2022-12-07T10:55:44;101119.88;;;30.13;28.00
8575;BME280;4325;42.520;27.448;2022-12-07T10:58:27;101117.56;;;28.84;29.47
8575;BME280;4325;42.520;27.448;2022-12-07T11:01:04;101118.47;;;26.85;32.21
8575;BME280;4325;42.520;27.448;2022-12-07T11:03:46;101110.31;;;24.78;35.32
8575;BME280;4325;42.520;27.448;2022-12-07T11:06:26;101111.19;;;23.63;37.89
8575;BME280;4325;42.520;27.448;2022-12-07T11:09:16;101106.13;;;22.63;40.15
8575;BME280;4325;42.520;27.448;2022-12-07T11:11:55;101102.53;;;21.42;43.18
8575;BME280;4325;42.520;27.448;2022-12-07T11:14:33;101109.66;;;21.23;44.02
8575;BME280;4325;42.520;27.448;2022-12-07T11:17:03;101100.97;;;21.24;44.46
8575;BME280;4325;42.520;27.448;2022-12-07T11:19:50;101108.03;;;21.22;44.82
8575;BME280;4325;42.520;27.448;2022-12-07T11:22:24;101094.59;;;21.24;45.03
8575;BME280;4325;42.520;27.448;2022-12-07T11:25:00;101097.91;;;21.09;45.51
8575;BME280;4325;42.520;27.448;2022-12-07T11:27:34;101092.03;;;21.01;45.70
8575;BME280;4325;42.520;27.448;2022-12-07T11:30:16;101091.38;;;21.04;45.83
8575;BME280;4325;42.520;27.448;2022-12-07T11:32:59;101089.56;;;21.09;45.93
8575;BME280;4325;42.520;27.448;2022-12-07T11:35:38;101087.28;;;20.93;46.09
8575;BME280;4325;42.520;27.448;2022-12-07T11:38:14;101076.44;;;20.37;47.62
8575;BME280;4325;42.520;27.448;2022-12-07T11:40:43;101086.22;;;18.87;53.28
8575;BME280;4325;42.520;27.448;2022-12-07T11:43:18;101085.53;;;17.79;61.17
8575;BME280;4325;42.520;27.448;2022-12-07T11:45:52;101083.59;;;16.98;69.29
8575;BME280;4325;42.520;27.448;2022-12-07T11:48:30;101072.97;;;17.05;71.94
8575;BME280;4325;42.520;27.448;2022-12-07T11:51:01;101073.06;;;17.28;71.37
8575;BME280;4325;42.520;27.448;2022-12-07T11:53:32;101069.13;;;17.83;68.78
8575;BME280;4325;42.520;27.448;2022-12-07T11:56:03;101064.19;;;17.80;66.39
8575;BME280;4325;42.520;27.448;2022-12-07T11:58:46;101059.31;;;17.99;64.91
8575;BME280;4325;42.520;27.448;2022-12-07T12:01:25;101060.31;;;18.25;62.98
8575;BME280;4325;42.520;27.448;2022-12-07T12:03:58;101057.50;;;18.17;62.68
8575;BME280;4325;42.520;27.448;2022-12-07T12:06:30;101047.97;;;18.09;63.41
8575;BME280;4325;42.520;27.448;2022-12-07T12:09:04;101049.94;;;18.53;62.90
8575;BME280;4325;42.520;27.448;2022-12-07T12:11:46;101048.00;;;18.84;59.85
8575;BME280;4325;42.520;27.448;2022-12-07T12:14:34;101049.59;;;19.72;57.50
8575;BME280;4325;42.520;27.448;2022-12-07T12:17:22;101049.63;;;20.07;52.71
8575;BME280;4325;42.520;27.448;2022-12-07T12:20:00;101040.59;;;19.67;53.22
8575;BME280;4325;42.520;27.448;2022-12-07T12:22:34;101041.59;;;19.15;55.80
8575;BME280;4325;42.520;27.448;2022-12-07T12:25:05;101037.97;;;18.66;58.01
8575;BME280;4325;42.520;27.448;2022-12-07T12:27:36;101031.81;;;18.25;60.64
8575;BME280;4325;42.520;27.448;2022-12-07T12:30:07;101037.91;;;17.91;63.28
8575;BME280;4325;42.520;27.448;2022-12-07T12:32:51;101038.78;;;17.51;65.23
8575;BME280;4325;42.520;27.448;2022-12-07T12:35:28;101042.09;;;17.26;67.09
8575;BME280;4325;42.520;27.448;2022-12-07T12:38:24;101032.91;;;17.03;68.58
8575;BME280;4325;42.520;27.448;2022-12-07T12:40:52;101037.69;;;16.97;69.88
8575;BME280;4325;42.520;27.448;2022-12-07T12:43:45;101027.75;;;16.69;71.25
8575;BME280;4325;42.520;27.448;2022-12-07T12:46:45;101033.78;;;16.39;73.67
8575;BME280;4325;42.520;27.448;2022-12-07T12:49:32;101026.59;;;16.24;73.74
8575;BME280;4325;42.520;27.448;2022-12-07T12:52:01;101028.75;;;16.09;75.00
8575;BME280;4325;42.520;27.448;2022-12-07T12:54:31;101029.81;;;15.94;76.31
8575;BME280;4325;42.520;27.448;2022-12-07T12:57:03;101022.41;;;15.57;79.39
8575;BME280;4325;42.520;27.448;2022-12-07T12:59:33;101031.81;;;15.33;82.05
8575;BME280;4325;42.520;27.448;2022-12-07T13:02:16;101027.13;;;15.33;83.35
8575;BME280;4325;42.520;27.448;2022-12-07T13:04:55;101033.69;;;15.37;82.57
8575;BME280;4325;42.520;27.448;2022-12-07T13:10:42;101028.06;;;15.23;83.48
8575;BME280;4325;42.520;27.448;2022-12-07T13:13:31;101019.25;;;15.21;84.32
8575;BME280;4325;42.520;27.448;2022-12-07T13:22:41;101019.81;;;15.00;84.33
8575;BME280;4325;42.520;27.448;2022-12-07T13:25:12;101020.91;;;14.75;86.20
8575;BME280;4325;42.520;27.448;2022-12-07T13:27:44;101026.09;;;14.82;86.37
8575;BME280;4325;42.520;27.448;2022-12-07T13:30:16;101019.69;;;14.86;86.40
8575;BME280;4325;42.520;27.448;2022-12-07T13:32:51;101026.19;;;14.72;88.24